Waldeck, Texas
Current Conditions -  °F | °C
As of 12:15 PM on Thursday 30 Oct 2014 (Local Time) from KGYB Reporting Station
Broken Clouds Broken Clouds  
Wind Chill: 70°   Ceiling: 4500
Heat Index: 70°   Visibility: 10mi
Dew Point: 50°   Wind: 0mph
Humidity: 49%   Direction: NA
Pressure: 30.19"   Gusts: NA
Location:  30.2279°N, 96.7713°W
Report Text: KGYB 301715Z AUTO 00000KT 10SM BKN045 21/10 A3019 RMK AO2 T02130101
Loading
Personal Weather Stations






























Interactive Weather Map
Tropical Storm Tracking
New forecast layout! Learn more

10-Day Weather Forecast

Advertisements
Track Severe Weather on mobile